sensor_id;sensor_type;location;lat;lon;timestamp;P1;durP1;ratioP1;P2;durP2;ratioP2
16954;SDS011;8594;52.052;8.354;2023-05-07T00:00:40;32.97;;;19.23;;
16954;SDS011;8594;52.052;8.354;2023-05-07T00:03:07;32.60;;;19.60;;
16954;SDS011;8594;52.052;8.354;2023-05-07T00:05:34;30.73;;;18.43;;
16954;SDS011;8594;52.052;8.354;2023-05-07T00:08:01;32.27;;;19.93;;
16954;SDS011;8594;52.052;8.354;2023-05-07T00:10:29;29.30;;;18.23;;
16954;SDS011;8594;52.052;8.354;2023-05-07T00:12:56;28.63;;;18.67;;
16954;SDS011;8594;52.052;8.354;2023-05-07T00:15:22;31.93;;;19.23;;
16954;SDS011;8594;52.052;8.354;2023-05-07T00:17:49;28.17;;;18.67;;
16954;SDS011;8594;52.052;8.354;2023-05-07T00:20:16;34.23;;;20.13;;
16954;SDS011;8594;52.052;8.354;2023-05-07T00:22:43;32.13;;;20.23;;
16954;SDS011;8594;52.052;8.354;2023-05-07T00:25:09;32.33;;;18.93;;
16954;SDS011;8594;52.052;8.354;2023-05-07T00:27:37;36.63;;;20.40;;
16954;SDS011;8594;52.052;8.354;2023-05-07T00:30:05;37.93;;;20.57;;
16954;SDS011;8594;52.052;8.354;2023-05-07T00:32:33;39.17;;;20.10;;
16954;SDS011;8594;52.052;8.354;2023-05-07T00:35:00;34.03;;;19.37;;
16954;SDS011;8594;52.052;8.354;2023-05-07T00:37:27;35.97;;;20.37;;
16954;SDS011;8594;52.052;8.354;2023-05-07T00:39:53;29.03;;;19.13;;
16954;SDS011;8594;52.052;8.354;2023-05-07T00:42:20;32.60;;;18.40;;
16954;SDS011;8594;52.052;8.354;2023-05-07T00:44:48;34.37;;;20.03;;
16954;SDS011;8594;52.052;8.354;2023-05-07T00:47:15;30.67;;;19.13;;
16954;SDS011;8594;52.052;8.354;2023-05-07T00:49:43;30.87;;;19.30;;
16954;SDS011;8594;52.052;8.354;2023-05-07T00:52:11;30.20;;;19.60;;
16954;SDS011;8594;52.052;8.354;2023-05-07T00:54:41;29.37;;;18.87;;
16954;SDS011;8594;52.052;8.354;2023-05-07T00:57:09;30.83;;;18.93;;
16954;SDS011;8594;52.052;8.354;2023-05-07T00:59:37;29.93;;;19.27;;
16954;SDS011;8594;52.052;8.354;2023-05-07T01:02:07;37.00;;;19.87;;
16954;SDS011;8594;52.052;8.354;2023-05-07T01:04:33;31.90;;;20.60;;
16954;SDS011;8594;52.052;8.354;2023-05-07T01:07:00;32.10;;;19.07;;
16954;SDS011;8594;52.052;8.354;2023-05-07T01:09:28;31.70;;;18.73;;
16954;SDS011;8594;52.052;8.354;2023-05-07T01:11:55;37.47;;;20.13;;
16954;SDS011;8594;52.052;8.354;2023-05-07T01:14:24;34.07;;;20.17;;
16954;SDS011;8594;52.052;8.354;2023-05-07T01:16:51;31.63;;;19.73;;
16954;SDS011;8594;52.052;8.354;2023-05-07T01:19:20;32.03;;;19.93;;
16954;SDS011;8594;52.052;8.354;2023-05-07T01:21:47;32.20;;;20.63;;
16954;SDS011;8594;52.052;8.354;2023-05-07T01:24:16;40.23;;;21.63;;
16954;SDS011;8594;52.052;8.354;2023-05-07T01:26:44;29.83;;;19.53;;
16954;SDS011;8594;52.052;8.354;2023-05-07T01:29:11;31.90;;;20.03;;
16954;SDS011;8594;52.052;8.354;2023-05-07T01:31:38;35.57;;;20.63;;
16954;SDS011;8594;52.052;8.354;2023-05-07T01:34:07;34.83;;;20.90;;
16954;SDS011;8594;52.052;8.354;2023-05-07T01:36:38;33.97;;;20.50;;
16954;SDS011;8594;52.052;8.354;2023-05-07T01:39:06;33.03;;;20.50;;
16954;SDS011;8594;52.052;8.354;2023-05-07T01:41:36;36.87;;;21.40;;
16954;SDS011;8594;52.052;8.354;2023-05-07T01:44:03;38.50;;;22.07;;
16954;SDS011;8594;52.052;8.354;2023-05-07T01:46:31;41.50;;;21.00;;
16954;SDS011;8594;52.052;8.354;2023-05-07T01:49:00;36.73;;;21.20;;
16954;SDS011;8594;52.052;8.354;2023-05-07T01:51:26;35.63;;;21.70;;
16954;SDS011;8594;52.052;8.354;2023-05-07T01:53:54;34.50;;;21.27;;
16954;SDS011;8594;52.052;8.354;2023-05-07T01:56:21;36.50;;;22.43;;
16954;SDS011;8594;52.052;8.354;2023-05-07T01:58:49;36.80;;;22.23;;
16954;SDS011;8594;52.052;8.354;2023-05-07T02:01:17;35.63;;;21.83;;
16954;SDS011;8594;52.052;8.354;2023-05-07T02:03:44;38.13;;;21.73;;
16954;SDS011;8594;52.052;8.354;2023-05-07T02:06:10;37.73;;;21.63;;
16954;SDS011;8594;52.052;8.354;2023-05-07T02:08:37;36.93;;;21.80;;
16954;SDS011;8594;52.052;8.354;2023-05-07T02:11:04;39.97;;;23.20;;
16954;SDS011;8594;52.052;8.354;2023-05-07T02:13:31;44.10;;;23.70;;
16954;SDS011;8594;52.052;8.354;2023-05-07T02:16:01;39.57;;;21.63;;
16954;SDS011;8594;52.052;8.354;2023-05-07T02:18:28;35.50;;;22.33;;
16954;SDS011;8594;52.052;8.354;2023-05-07T02:20:55;40.63;;;22.70;;
16954;SDS011;8594;52.052;8.354;2023-05-07T02:23:22;37.90;;;21.97;;
16954;SDS011;8594;52.052;8.354;2023-05-07T02:25:49;36.83;;;21.53;;
16954;SDS011;8594;52.052;8.354;2023-05-07T02:28:17;41.50;;;23.17;;
16954;SDS011;8594;52.052;8.354;2023-05-07T02:30:44;40.73;;;23.13;;
16954;SDS011;8594;52.052;8.354;2023-05-07T02:33:12;41.47;;;22.23;;
16954;SDS011;8594;52.052;8.354;2023-05-07T02:35:39;38.33;;;22.33;;
16954;SDS011;8594;52.052;8.354;2023-05-07T02:38:06;40.13;;;23.57;;
16954;SDS011;8594;52.052;8.354;2023-05-07T02:40:35;37.37;;;22.57;;
16954;SDS011;8594;52.052;8.354;2023-05-07T02:43:03;39.80;;;23.17;;
16954;SDS011;8594;52.052;8.354;2023-05-07T02:45:31;41.00;;;24.33;;
16954;SDS011;8594;52.052;8.354;2023-05-07T02:47:58;37.57;;;23.07;;
16954;SDS011;8594;52.052;8.354;2023-05-07T02:50:26;39.57;;;24.03;;
16954;SDS011;8594;52.052;8.354;2023-05-07T02:52:53;41.33;;;22.70;;
16954;SDS011;8594;52.052;8.354;2023-05-07T02:55:20;37.87;;;22.87;;
16954;SDS011;8594;52.052;8.354;2023-05-07T02:57:47;31.90;;;20.87;;
16954;SDS011;8594;52.052;8.354;2023-05-07T03:00:14;36.00;;;21.70;;
16954;SDS011;8594;52.052;8.354;2023-05-07T03:02:43;37.40;;;22.43;;
16954;SDS011;8594;52.052;8.354;2023-05-07T03:05:10;36.50;;;22.37;;
16954;SDS011;8594;52.052;8.354;2023-05-07T03:07:39;35.27;;;22.57;;
16954;SDS011;8594;52.052;8.354;2023-05-07T03:10:06;39.70;;;23.73;;
16954;SDS011;8594;52.052;8.354;2023-05-07T03:12:34;40.63;;;23.93;;
16954;SDS011;8594;52.052;8.354;2023-05-07T03:15:00;40.57;;;23.07;;
16954;SDS011;8594;52.052;8.354;2023-05-07T03:17:27;36.63;;;21.83;;
16954;SDS011;8594;52.052;8.354;2023-05-07T03:19:54;39.50;;;23.63;;
16954;SDS011;8594;52.052;8.354;2023-05-07T03:22:21;41.70;;;23.83;;
16954;SDS011;8594;52.052;8.354;2023-05-07T03:24:49;42.37;;;23.90;;
16954;SDS011;8594;52.052;8.354;2023-05-07T03:27:16;42.13;;;24.10;;
16954;SDS011;8594;52.052;8.354;2023-05-07T03:29:42;37.53;;;24.03;;
16954;SDS011;8594;52.052;8.354;2023-05-07T03:32:09;37.33;;;22.77;;
16954;SDS011;8594;52.052;8.354;2023-05-07T03:34:36;41.13;;;23.70;;
16954;SDS011;8594;52.052;8.354;2023-05-07T03:37:03;40.80;;;23.17;;
16954;SDS011;8594;52.052;8.354;2023-05-07T03:39:29;41.93;;;22.03;;
16954;SDS011;8594;52.052;8.354;2023-05-07T03:41:58;40.73;;;23.20;;
16954;SDS011;8594;52.052;8.354;2023-05-07T03:44:25;45.90;;;23.90;;
16954;SDS011;8594;52.052;8.354;2023-05-07T03:46:52;40.10;;;23.80;;
16954;SDS011;8594;52.052;8.354;2023-05-07T03:49:19;40.10;;;23.80;;
16954;SDS011;8594;52.052;8.354;2023-05-07T03:51:46;41.23;;;23.50;;
16954;SDS011;8594;52.052;8.354;2023-05-07T03:54:12;42.60;;;23.40;;
16954;SDS011;8594;52.052;8.354;2023-05-07T03:56:39;38.57;;;23.03;;
16954;SDS011;8594;52.052;8.354;2023-05-07T03:59:07;40.10;;;23.57;;
16954;SDS011;8594;52.052;8.354;2023-05-07T04:01:34;42.13;;;23.07;;
16954;SDS011;8594;52.052;8.354;2023-05-07T04:04:01;39.93;;;23.83;;
16954;SDS011;8594;52.052;8.354;2023-05-07T04:06:28;42.73;;;24.03;;
16954;SDS011;8594;52.052;8.354;2023-05-07T04:08:55;41.93;;;24.90;;
16954;SDS011;8594;52.052;8.354;2023-05-07T04:11:21;43.07;;;23.97;;
16954;SDS011;8594;52.052;8.354;2023-05-07T04:13:48;39.10;;;23.57;;
16954;SDS011;8594;52.052;8.354;2023-05-07T04:16:16;42.43;;;23.07;;
16954;SDS011;8594;52.052;8.354;2023-05-07T04:18:43;40.30;;;23.77;;
16954;SDS011;8594;52.052;8.354;2023-05-07T04:21:13;40.83;;;23.50;;
16954;SDS011;8594;52.052;8.354;2023-05-07T04:23:41;39.17;;;22.23;;
16954;SDS011;8594;52.052;8.354;2023-05-07T04:26:09;41.63;;;23.73;;
16954;SDS011;8594;52.052;8.354;2023-05-07T04:28:36;41.83;;;23.23;;
16954;SDS011;8594;52.052;8.354;2023-05-07T04:31:02;43.73;;;22.93;;
16954;SDS011;8594;52.052;8.354;2023-05-07T04:33:31;40.43;;;23.70;;
16954;SDS011;8594;52.052;8.354;2023-05-07T04:35:58;42.27;;;23.37;;
16954;SDS011;8594;52.052;8.354;2023-05-07T04:38:28;36.40;;;22.97;;
16954;SDS011;8594;52.052;8.354;2023-05-07T04:40:56;45.57;;;23.47;;
16954;SDS011;8594;52.052;8.354;2023-05-07T04:43:23;46.07;;;26.03;;
16954;SDS011;8594;52.052;8.354;2023-05-07T04:45:50;39.77;;;23.87;;
16954;SDS011;8594;52.052;8.354;2023-05-07T04:48:17;41.00;;;24.37;;
16954;SDS011;8594;52.052;8.354;2023-05-07T04:50:48;46.63;;;25.27;;
16954;SDS011;8594;52.052;8.354;2023-05-07T04:53:15;43.63;;;25.17;;
16954;SDS011;8594;52.052;8.354;2023-05-07T04:55:42;44.13;;;24.60;;
16954;SDS011;8594;52.052;8.354;2023-05-07T04:58:09;45.43;;;25.40;;
16954;SDS011;8594;52.052;8.354;2023-05-07T05:00:37;47.83;;;25.57;;
16954;SDS011;8594;52.052;8.354;2023-05-07T05:03:04;45.57;;;25.07;;
16954;SDS011;8594;52.052;8.354;2023-05-07T05:05:32;43.83;;;25.20;;
16954;SDS011;8594;52.052;8.354;2023-05-07T05:08:00;43.43;;;24.37;;
16954;SDS011;8594;52.052;8.354;2023-05-07T05:10:27;42.00;;;22.90;;
16954;SDS011;8594;52.052;8.354;2023-05-07T05:12:54;43.93;;;24.37;;
16954;SDS011;8594;52.052;8.354;2023-05-07T05:15:21;45.17;;;25.20;;
16954;SDS011;8594;52.052;8.354;2023-05-07T05:17:48;42.80;;;23.53;;
16954;SDS011;8594;52.052;8.354;2023-05-07T05:20:15;41.33;;;24.13;;
16954;SDS011;8594;52.052;8.354;2023-05-07T05:22:42;45.83;;;24.77;;
16954;SDS011;8594;52.052;8.354;2023-05-07T05:25:10;40.83;;;23.80;;
16954;SDS011;8594;52.052;8.354;2023-05-07T05:27:36;45.13;;;23.87;;
16954;SDS011;8594;52.052;8.354;2023-05-07T05:30:03;41.43;;;24.03;;
16954;SDS011;8594;52.052;8.354;2023-05-07T05:32:32;46.57;;;24.80;;
16954;SDS011;8594;52.052;8.354;2023-05-07T05:34:58;44.63;;;25.13;;
16954;SDS011;8594;52.052;8.354;2023-05-07T05:37:25;46.97;;;26.97;;
16954;SDS011;8594;52.052;8.354;2023-05-07T05:39:52;45.73;;;25.33;;
16954;SDS011;8594;52.052;8.354;2023-05-07T05:42:21;45.97;;;25.67;;
16954;SDS011;8594;52.052;8.354;2023-05-07T05:44:49;43.17;;;24.00;;
16954;SDS011;8594;52.052;8.354;2023-05-07T05:47:16;43.13;;;24.07;;
16954;SDS011;8594;52.052;8.354;2023-05-07T05:49:43;43.27;;;24.17;;
16954;SDS011;8594;52.052;8.354;2023-05-07T05:52:11;43.97;;;24.83;;
16954;SDS011;8594;52.052;8.354;2023-05-07T05:54:39;43.53;;;26.10;;
16954;SDS011;8594;52.052;8.354;2023-05-07T05:57:06;47.73;;;24.27;;
16954;SDS011;8594;52.052;8.354;2023-05-07T05:59:37;44.30;;;24.10;;
16954;SDS011;8594;52.052;8.354;2023-05-07T06:02:04;43.20;;;24.43;;
16954;SDS011;8594;52.052;8.354;2023-05-07T06:04:31;41.20;;;23.17;;
16954;SDS011;8594;52.052;8.354;2023-05-07T06:06:58;44.10;;;24.60;;
16954;SDS011;8594;52.052;8.354;2023-05-07T06:09:24;40.63;;;23.60;;
16954;SDS011;8594;52.052;8.354;2023-05-07T06:11:51;37.87;;;22.63;;
16954;SDS011;8594;52.052;8.354;2023-05-07T06:14:18;39.80;;;23.33;;
16954;SDS011;8594;52.052;8.354;2023-05-07T06:16:46;47.83;;;22.93;;
16954;SDS011;8594;52.052;8.354;2023-05-07T06:19:13;38.97;;;22.83;;
16954;SDS011;8594;52.052;8.354;2023-05-07T06:21:43;42.27;;;22.57;;
16954;SDS011;8594;52.052;8.354;2023-05-07T06:24:09;39.97;;;21.17;;
16954;SDS011;8594;52.052;8.354;2023-05-07T06:26:36;41.33;;;23.80;;
16954;SDS011;8594;52.052;8.354;2023-05-07T06:29:03;39.57;;;22.70;;
16954;SDS011;8594;52.052;8.354;2023-05-07T06:31:30;37.27;;;21.97;;
16954;SDS011;8594;52.052;8.354;2023-05-07T06:33:59;41.47;;;24.13;;
16954;SDS011;8594;52.052;8.354;2023-05-07T06:36:27;39.70;;;23.47;;
16954;SDS011;8594;52.052;8.354;2023-05-07T06:38:54;41.63;;;22.97;;
16954;SDS011;8594;52.052;8.354;2023-05-07T06:41:21;37.70;;;21.83;;
16954;SDS011;8594;52.052;8.354;2023-05-07T06:43:47;40.00;;;22.70;;
16954;SDS011;8594;52.052;8.354;2023-05-07T06:46:14;41.43;;;22.40;;
16954;SDS011;8594;52.052;8.354;2023-05-07T06:48:41;39.47;;;22.30;;
16954;SDS011;8594;52.052;8.354;2023-05-07T06:51:09;38.63;;;22.20;;
16954;SDS011;8594;52.052;8.354;2023-05-07T06:53:36;40.27;;;22.47;;
16954;SDS011;8594;52.052;8.354;2023-05-07T06:56:03;34.97;;;18.97;;
16954;SDS011;8594;52.052;8.354;2023-05-07T06:58:31;35.70;;;20.93;;
16954;SDS011;8594;52.052;8.354;2023-05-07T07:00:58;35.90;;;20.03;;
16954;SDS011;8594;52.052;8.354;2023-05-07T07:03:25;35.90;;;20.63;;
16954;SDS011;8594;52.052;8.354;2023-05-07T07:05:52;35.57;;;20.30;;
16954;SDS011;8594;52.052;8.354;2023-05-07T07:08:21;32.33;;;19.50;;
16954;SDS011;8594;52.052;8.354;2023-05-07T07:10:48;30.83;;;19.50;;
16954;SDS011;8594;52.052;8.354;2023-05-07T07:13:15;35.33;;;18.43;;
16954;SDS011;8594;52.052;8.354;2023-05-07T07:15:42;32.87;;;18.20;;
16954;SDS011;8594;52.052;8.354;2023-05-07T07:18:09;30.97;;;17.40;;
16954;SDS011;8594;52.052;8.354;2023-05-07T07:20:36;33.80;;;18.77;;
16954;SDS011;8594;52.052;8.354;2023-05-07T07:23:03;32.00;;;17.90;;
16954;SDS011;8594;52.052;8.354;2023-05-07T07:25:31;34.37;;;18.30;;
16954;SDS011;8594;52.052;8.354;2023-05-07T07:27:58;29.93;;;17.73;;
16954;SDS011;8594;52.052;8.354;2023-05-07T07:30:25;30.20;;;17.27;;
16954;SDS011;8594;52.052;8.354;2023-05-07T07:32:52;30.53;;;17.50;;
16954;SDS011;8594;52.052;8.354;2023-05-07T07:35:19;31.40;;;18.30;;
16954;SDS011;8594;52.052;8.354;2023-05-07T07:37:46;31.77;;;18.13;;
16954;SDS011;8594;52.052;8.354;2023-05-07T07:40:14;33.87;;;18.50;;
16954;SDS011;8594;52.052;8.354;2023-05-07T07:42:43;28.37;;;17.23;;
16954;SDS011;8594;52.052;8.354;2023-05-07T07:45:10;30.03;;;17.13;;
16954;SDS011;8594;52.052;8.354;2023-05-07T07:47:37;28.70;;;16.73;;
16954;SDS011;8594;52.052;8.354;2023-05-07T07:50:05;29.73;;;17.17;;
16954;SDS011;8594;52.052;8.354;2023-05-07T07:52:33;28.33;;;15.90;;
16954;SDS011;8594;52.052;8.354;2023-05-07T07:55:00;26.87;;;16.43;;
16954;SDS011;8594;52.052;8.354;2023-05-07T07:57:28;27.57;;;15.70;;
16954;SDS011;8594;52.052;8.354;2023-05-07T07:59:56;28.53;;;16.60;;
16954;SDS011;8594;52.052;8.354;2023-05-07T08:02:23;25.70;;;16.20;;
16954;SDS011;8594;52.052;8.354;2023-05-07T08:04:50;27.37;;;16.10;;
16954;SDS011;8594;52.052;8.354;2023-05-07T08:07:17;29.77;;;16.83;;
16954;SDS011;8594;52.052;8.354;2023-05-07T08:09:45;28.80;;;15.90;;
16954;SDS011;8594;52.052;8.354;2023-05-07T08:12:12;26.47;;;15.57;;
16954;SDS011;8594;52.052;8.354;2023-05-07T08:14:39;28.47;;;16.07;;
16954;SDS011;8594;52.052;8.354;2023-05-07T08:17:08;26.20;;;15.03;;
16954;SDS011;8594;52.052;8.354;2023-05-07T08:19:35;23.77;;;15.27;;
16954;SDS011;8594;52.052;8.354;2023-05-07T08:22:02;25.20;;;15.80;;
16954;SDS011;8594;52.052;8.354;2023-05-07T08:24:30;26.97;;;15.73;;
16954;SDS011;8594;52.052;8.354;2023-05-07T08:26:57;20.83;;;14.17;;
16954;SDS011;8594;52.052;8.354;2023-05-07T08:29:24;23.53;;;15.67;;
16954;SDS011;8594;52.052;8.354;2023-05-07T08:31:50;23.57;;;15.17;;
16954;SDS011;8594;52.052;8.354;2023-05-07T08:34:19;25.63;;;15.23;;
16954;SDS011;8594;52.052;8.354;2023-05-07T08:36:47;24.03;;;14.50;;
16954;SDS011;8594;52.052;8.354;2023-05-07T08:39:14;23.83;;;14.17;;
16954;SDS011;8594;52.052;8.354;2023-05-07T08:41:42;21.63;;;13.50;;
16954;SDS011;8594;52.052;8.354;2023-05-07T08:44:12;24.50;;;14.93;;
16954;SDS011;8594;52.052;8.354;2023-05-07T08:46:39;23.23;;;14.67;;
16954;SDS011;8594;52.052;8.354;2023-05-07T08:49:08;20.13;;;13.70;;
16954;SDS011;8594;52.052;8.354;2023-05-07T08:51:36;21.13;;;13.73;;
16954;SDS011;8594;52.052;8.354;2023-05-07T08:54:03;21.77;;;13.57;;
16954;SDS011;8594;52.052;8.354;2023-05-07T08:56:32;20.00;;;13.00;;
16954;SDS011;8594;52.052;8.354;2023-05-07T08:58:59;23.00;;;13.10;;
16954;SDS011;8594;52.052;8.354;2023-05-07T09:01:26;23.07;;;12.73;;
16954;SDS011;8594;52.052;8.354;2023-05-07T09:03:53;22.10;;;13.13;;
16954;SDS011;8594;52.052;8.354;2023-05-07T09:06:20;17.87;;;12.07;;
16954;SDS011;8594;52.052;8.354;2023-05-07T09:08:52;19.97;;;12.23;;
16954;SDS011;8594;52.052;8.354;2023-05-07T09:11:20;20.67;;;12.80;;
16954;SDS011;8594;52.052;8.354;2023-05-07T09:13:48;18.30;;;12.03;;
16954;SDS011;8594;52.052;8.354;2023-05-07T09:16:20;19.87;;;12.97;;
16954;SDS011;8594;52.052;8.354;2023-05-07T09:18:48;17.73;;;12.13;;
16954;SDS011;8594;52.052;8.354;2023-05-07T09:21:18;17.87;;;12.03;;
16954;SDS011;8594;52.052;8.354;2023-05-07T09:23:48;17.13;;;11.43;;
16954;SDS011;8594;52.052;8.354;2023-05-07T09:26:18;21.70;;;11.23;;
16954;SDS011;8594;52.052;8.354;2023-05-07T09:28:47;17.33;;;10.60;;
16954;SDS011;8594;52.052;8.354;2023-05-07T09:31:14;17.97;;;10.67;;
16954;SDS011;8594;52.052;8.354;2023-05-07T09:33:41;17.30;;;10.93;;
16954;SDS011;8594;52.052;8.354;2023-05-07T09:36:08;17.27;;;11.03;;
16954;SDS011;8594;52.052;8.354;2023-05-07T09:38:36;16.93;;;10.60;;
16954;SDS011;8594;52.052;8.354;2023-05-07T09:41:06;16.77;;;10.77;;
16954;SDS011;8594;52.052;8.354;2023-05-07T09:43:34;15.73;;;10.83;;
16954;SDS011;8594;52.052;8.354;2023-05-07T09:46:05;15.57;;;9.63;;
16954;SDS011;8594;52.052;8.354;2023-05-07T09:48:37;17.17;;;10.07;;
16954;SDS011;8594;52.052;8.354;2023-05-07T09:51:08;15.70;;;9.57;;
16954;SDS011;8594;52.052;8.354;2023-05-07T09:53:44;14.63;;;9.30;;
16954;SDS011;8594;52.052;8.354;2023-05-07T09:56:14;15.97;;;10.07;;
16954;SDS011;8594;52.052;8.354;2023-05-07T09:58:42;15.57;;;10.13;;
16954;SDS011;8594;52.052;8.354;2023-05-07T10:01:11;15.87;;;9.57;;
16954;SDS011;8594;52.052;8.354;2023-05-07T10:03:39;15.60;;;9.63;;
16954;SDS011;8594;52.052;8.354;2023-05-07T10:06:08;14.80;;;9.23;;
16954;SDS011;8594;52.052;8.354;2023-05-07T10:08:36;16.83;;;10.20;;
16954;SDS011;8594;52.052;8.354;2023-05-07T10:11:04;16.13;;;9.70;;
16954;SDS011;8594;52.052;8.354;2023-05-07T10:13:33;15.97;;;9.77;;
16954;SDS011;8594;52.052;8.354;2023-05-07T10:16:02;17.77;;;9.63;;
16954;SDS011;8594;52.052;8.354;2023-05-07T10:18:30;13.83;;;10.00;;
16954;SDS011;8594;52.052;8.354;2023-05-07T10:21:00;14.73;;;9.03;;
16954;SDS011;8594;52.052;8.354;2023-05-07T10:23:33;15.67;;;9.70;;
16954;SDS011;8594;52.052;8.354;2023-05-07T10:26:02;18.07;;;10.27;;
16954;SDS011;8594;52.052;8.354;2023-05-07T10:28:36;14.70;;;9.57;;
16954;SDS011;8594;52.052;8.354;2023-05-07T10:31:10;18.30;;;10.43;;
16954;SDS011;8594;52.052;8.354;2023-05-07T10:33:57;14.70;;;9.70;;
16954;SDS011;8594;52.052;8.354;2023-05-07T10:36:28;14.57;;;8.83;;
16954;SDS011;8594;52.052;8.354;2023-05-07T10:38:55;13.10;;;8.87;;
16954;SDS011;8594;52.052;8.354;2023-05-07T10:41:22;13.80;;;9.70;;
16954;SDS011;8594;52.052;8.354;2023-05-07T10:43:51;14.63;;;8.90;;
16954;SDS011;8594;52.052;8.354;2023-05-07T10:46:18;15.50;;;9.03;;
16954;SDS011;8594;52.052;8.354;2023-05-07T10:51:37;16.57;;;9.80;;
16954;SDS011;8594;52.052;8.354;2023-05-07T10:54:21;17.00;;;9.50;;
16954;SDS011;8594;52.052;8.354;2023-05-07T10:56:49;15.83;;;9.97;;
16954;SDS011;8594;52.052;8.354;2023-05-07T11:02:07;15.20;;;9.00;;
16954;SDS011;8594;52.052;8.354;2023-05-07T11:04:37;12.20;;;8.40;;
16954;SDS011;8594;52.052;8.354;2023-05-07T11:07:14;13.03;;;8.17;;
16954;SDS011;8594;52.052;8.354;2023-05-07T11:09:58;13.13;;;8.90;;
16954;SDS011;8594;52.052;8.354;2023-05-07T11:12:49;16.27;;;8.53;;
16954;SDS011;8594;52.052;8.354;2023-05-07T11:15:35;13.80;;;8.97;;
16954;SDS011;8594;52.052;8.354;2023-05-07T11:18:08;14.80;;;9.30;;
16954;SDS011;8594;52.052;8.354;2023-05-07T11:26:23;14.43;;;9.50;;
16954;SDS011;8594;52.052;8.354;2023-05-07T11:28:50;13.13;;;9.43;;
16954;SDS011;8594;52.052;8.354;2023-05-07T11:31:21;14.70;;;8.97;;
16954;SDS011;8594;52.052;8.354;2023-05-07T11:33:51;14.03;;;9.83;;
16954;SDS011;8594;52.052;8.354;2023-05-07T11:36:20;14.47;;;8.97;;
16954;SDS011;8594;52.052;8.354;2023-05-07T11:38:50;15.70;;;8.87;;
16954;SDS011;8594;52.052;8.354;2023-05-07T11:41:17;11.67;;;8.20;;
16954;SDS011;8594;52.052;8.354;2023-05-07T11:43:55;10.77;;;8.10;;
16954;SDS011;8594;52.052;8.354;2023-05-07T11:46:26;13.03;;;7.67;;
16954;SDS011;8594;52.052;8.354;2023-05-07T11:48:54;10.50;;;7.63;;
16954;SDS011;8594;52.052;8.354;2023-05-07T11:51:22;12.80;;;7.87;;
16954;SDS011;8594;52.052;8.354;2023-05-07T11:53:52;11.80;;;8.13;;
16954;SDS011;8594;52.052;8.354;2023-05-07T11:56:19;13.80;;;8.40;;
16954;SDS011;8594;52.052;8.354;2023-05-07T11:58:47;12.80;;;8.50;;
16954;SDS011;8594;52.052;8.354;2023-05-07T12:01:15;13.47;;;8.83;;
16954;SDS011;8594;52.052;8.354;2023-05-07T12:03:44;10.53;;;6.73;;
16954;SDS011;8594;52.052;8.354;2023-05-07T12:06:12;10.63;;;6.80;;
16954;SDS011;8594;52.052;8.354;2023-05-07T12:08:41;10.20;;;6.67;;
16954;SDS011;8594;52.052;8.354;2023-05-07T12:11:11;9.43;;;7.10;;
16954;SDS011;8594;52.052;8.354;2023-05-07T12:13:42;10.17;;;6.30;;
16954;SDS011;8594;52.052;8.354;2023-05-07T12:16:09;9.10;;;6.80;;
16954;SDS011;8594;52.052;8.354;2023-05-07T12:18:37;9.80;;;6.70;;
16954;SDS011;8594;52.052;8.354;2023-05-07T12:21:08;9.57;;;6.40;;
16954;SDS011;8594;52.052;8.354;2023-05-07T12:23:44;9.23;;;6.20;;
16954;SDS011;8594;52.052;8.354;2023-05-07T12:26:12;8.20;;;6.33;;
16954;SDS011;8594;52.052;8.354;2023-05-07T12:28:47;7.53;;;5.70;;
16954;SDS011;8594;52.052;8.354;2023-05-07T12:31:15;6.47;;;5.33;;
16954;SDS011;8594;52.052;8.354;2023-05-07T12:33:42;9.50;;;6.33;;
16954;SDS011;8594;52.052;8.354;2023-05-07T12:36:12;11.77;;;6.47;;
16954;SDS011;8594;52.052;8.354;2023-05-07T12:38:39;8.10;;;6.30;;
16954;SDS011;8594;52.052;8.354;2023-05-07T12:41:07;8.80;;;6.90;;
16954;SDS011;8594;52.052;8.354;2023-05-07T12:43:37;10.23;;;6.73;;
16954;SDS011;8594;52.052;8.354;2023-05-07T12:46:04;11.50;;;6.77;;
16954;SDS011;8594;52.052;8.354;2023-05-07T12:48:33;12.40;;;6.77;;
16954;SDS011;8594;52.052;8.354;2023-05-07T12:51:02;11.13;;;6.03;;
16954;SDS011;8594;52.052;8.354;2023-05-07T12:53:32;10.43;;;6.70;;
16954;SDS011;8594;52.052;8.354;2023-05-07T12:56:01;10.60;;;6.80;;
16954;SDS011;8594;52.052;8.354;2023-05-07T12:58:32;11.13;;;6.40;;
16954;SDS011;8594;52.052;8.354;2023-05-07T13:01:03;8.67;;;6.50;;
16954;SDS011;8594;52.052;8.354;2023-05-07T13:03:33;9.17;;;6.33;;
16954;SDS011;8594;52.052;8.354;2023-05-07T13:06:02;9.67;;;6.37;;
16954;SDS011;8594;52.052;8.354;2023-05-07T13:08:37;10.20;;;6.50;;
16954;SDS011;8594;52.052;8.354;2023-05-07T13:11:08;9.43;;;6.20;;
16954;SDS011;8594;52.052;8.354;2023-05-07T13:13:37;11.13;;;6.87;;
16954;SDS011;8594;52.052;8.354;2023-05-07T13:16:07;10.23;;;6.07;;
16954;SDS011;8594;52.052;8.354;2023-05-07T13:18:35;8.40;;;6.33;;
16954;SDS011;8594;52.052;8.354;2023-05-07T13:21:02;7.57;;;5.90;;
16954;SDS011;8594;52.052;8.354;2023-05-07T13:23:29;8.13;;;5.37;;
16954;SDS011;8594;52.052;8.354;2023-05-07T13:25:58;7.73;;;5.87;;
16954;SDS011;8594;52.052;8.354;2023-05-07T13:28:24;9.77;;;6.37;;
16954;SDS011;8594;52.052;8.354;2023-05-07T13:30:52;8.53;;;5.70;;
16954;SDS011;8594;52.052;8.354;2023-05-07T13:33:19;9.90;;;6.20;;
16954;SDS011;8594;52.052;8.354;2023-05-07T13:35:46;8.80;;;5.67;;
16954;SDS011;8594;52.052;8.354;2023-05-07T13:38:13;9.47;;;6.10;;
16954;SDS011;8594;52.052;8.354;2023-05-07T13:40:40;8.03;;;5.60;;
16954;SDS011;8594;52.052;8.354;2023-05-07T13:43:08;6.80;;;5.37;;
16954;SDS011;8594;52.052;8.354;2023-05-07T13:45:35;8.83;;;6.20;;
16954;SDS011;8594;52.052;8.354;2023-05-07T13:48:02;12.80;;;6.07;;
16954;SDS011;8594;52.052;8.354;2023-05-07T13:50:30;14.43;;;6.27;;
16954;SDS011;8594;52.052;8.354;2023-05-07T13:52:56;8.13;;;5.40;;
16954;SDS011;8594;52.052;8.354;2023-05-07T13:55:24;7.40;;;5.90;;
16954;SDS011;8594;52.052;8.354;2023-05-07T13:57:54;11.10;;;5.43;;
16954;SDS011;8594;52.052;8.354;2023-05-07T14:00:24;8.70;;;5.70;;
16954;SDS011;8594;52.052;8.354;2023-05-07T14:02:52;9.97;;;5.60;;
16954;SDS011;8594;52.052;8.354;2023-05-07T14:05:19;7.03;;;5.17;;
16954;SDS011;8594;52.052;8.354;2023-05-07T14:07:48;7.30;;;5.57;;
16954;SDS011;8594;52.052;8.354;2023-05-07T14:10:16;7.47;;;5.57;;
16954;SDS011;8594;52.052;8.354;2023-05-07T14:12:44;8.10;;;5.43;;
16954;SDS011;8594;52.052;8.354;2023-05-07T14:15:12;8.83;;;5.90;;
16954;SDS011;8594;52.052;8.354;2023-05-07T14:17:40;7.20;;;5.10;;
16954;SDS011;8594;52.052;8.354;2023-05-07T14:20:07;8.40;;;5.60;;
16954;SDS011;8594;52.052;8.354;2023-05-07T14:22:35;9.23;;;5.83;;
16954;SDS011;8594;52.052;8.354;2023-05-07T14:25:03;9.80;;;5.77;;
16954;SDS011;8594;52.052;8.354;2023-05-07T14:27:31;12.67;;;6.43;;
16954;SDS011;8594;52.052;8.354;2023-05-07T14:29:58;9.57;;;6.20;;
16954;SDS011;8594;52.052;8.354;2023-05-07T14:32:24;10.43;;;6.30;;
16954;SDS011;8594;52.052;8.354;2023-05-07T14:34:52;8.27;;;5.83;;
16954;SDS011;8594;52.052;8.354;2023-05-07T14:37:19;9.53;;;6.40;;
16954;SDS011;8594;52.052;8.354;2023-05-07T14:39:47;8.30;;;6.23;;
16954;SDS011;8594;52.052;8.354;2023-05-07T14:42:14;10.73;;;6.73;;
16954;SDS011;8594;52.052;8.354;2023-05-07T14:44:41;9.33;;;6.80;;
16954;SDS011;8594;52.052;8.354;2023-05-07T14:47:09;11.90;;;7.30;;
16954;SDS011;8594;52.052;8.354;2023-05-07T14:49:36;9.83;;;6.03;;
16954;SDS011;8594;52.052;8.354;2023-05-07T14:52:04;9.53;;;7.23;;
16954;SDS011;8594;52.052;8.354;2023-05-07T14:54:33;8.63;;;6.50;;
16954;SDS011;8594;52.052;8.354;2023-05-07T14:57:00;10.33;;;7.07;;